Henderson, NV (89044)

11:48 AM PDT en Septiembre 04, 2015 (GMT -0700)
APRSWXNET | | Change Station
CLOSE
Current Station
Estación meteorológica personal
Location: Henderson, NV
Altura: 2402 ft
Estaciones meteorológicas cercanas

Alt 2402 ft 35.99 °N, 115.12 °W | Updated 28 minutes ago

Despejado
Despejado
86 ° F
Sensación térmica 85 ° F
N
7
Viento Variable Viento desde SSO
Gusts 16.0 mph

Hoy
Alta -- | Baja -- ° F
--% Posibilidad de precipitaciones
Ayer
Alta -- | Baja -- ° F
Precip. -- pul
6:14 AM 7:03 PM
Gibosa menguante, 57% visible
Presión 29.69 pul
Visibilidad 10.0 Millas
Nubes Baja 12000 ft
Índice de calor 85 ° F
Punto de rocío 57 ° F
Humedad 38%
Precipitaciones pul
Espesor de la nieve No disponible.
UV 8 de una escala de 12
Polen 7.40 de una escala de 12
Calidad del aire No disponible.
Flu Activity No disponible.
METAR KLAS 041756Z 20006KT 10SM FEW120 31/11 A2978 RMK AO2 SLP054 T03060106 10311 20250 58004
Presión 29.69 pul
Visibilidad 10.0 Millas
Nubes Baja 12000 ft
Índice de calor 85 ° F
Punto de rocío 57 ° F
Humedad 38%
Precipitaciones pul
Espesor de la nieve No disponible.
UV 8 de una escala de 12
Polen 7.40 de una escala de 12
Calidad del aire No disponible.
Flu Activity No disponible.
METAR KLAS 041756Z 20006KT 10SM FEW120 31/11 A2978 RMK AO2 SLP054 T03060106 10311 20250 58004

10-Day Weather Forecast

×

Almanac

Astronomía

Sep. 04, 2015 Salida Puesta
Hora real
Crepúsculo civil
Crepúsculo náutico
Crepúsculo astronómico
Luna
Horas de luz
Horas de luz
Tomorrow will be .
, % of the Moon is Illuminated

Extremos de hoy

Máximos del estado Bajos del estado

Community

WunderPhotos

Upload Photos

1,852,262 ¡fotos cargadas!

WunderBlogs® & News

Nearby

Calidad del aire

  Calidad del aire Índice AQ Contaminante
Not available.

Grosos de nieve

Estación Profundido Altura

Actividad de terremotos

Ciudad Distance Mag. Tiempo y dato
Magnitud mínima muestra es 2,5.

Temperaturas de aguas costeras

Lugar Temperatura

Stations

Estaciones meteorológicas cercanas

Ubicación de la estación Temp. Vientos helados Punto de rocío Humedad Viento Precip. Alt Actualizado Tipo